Time;durP1;ratioP1;P1;durP2;ratioP2;P2;SDS_P1;SDS_P2;PMS_P1;PMS_P2;Temp;Humidity;BMP_temperature;BMP_pressure;BME280_temperature;BME280_humidity;BME280_pressure;Samples;Min_cycle;Max_cycle;Signal;HPM_P1;HPM_P2
2021/03/10 00:00:32;;;;;;;63.28;38.70;;;8.30;99.90;;;;;;5034998;28;20198;-74
2021/03/10 00:02:58;;;;;;;63.05;38.65;;;8.20;99.90;;;;;;5072476;28;20669;-75
2021/03/10 00:05:24;;;;;;;60.75;38.92;;;8.10;99.90;;;;;;5044000;28;20183;-76
2021/03/10 00:07:50;;;;;;;70.32;41.53;;;8.00;99.90;;;;;;5052708;28;20179;-75
2021/03/10 00:10:15;;;;;;;70.70;39.38;;;8.00;99.90;;;;;;5069359;28;20237;-75
2021/03/10 00:12:42;;;;;;;63.63;40.25;;;7.90;99.90;;;;;;5051630;28;20206;-75
2021/03/10 00:15:10;;;;;;;62.55;37.58;;;7.80;99.90;;;;;;5057539;28;20189;-75
2021/03/10 00:17:36;;;;;;;64.45;37.72;;;7.80;99.90;;;;;;5074116;28;20249;-75
2021/03/10 00:20:03;;;;;;;66.78;40.03;;;7.70;99.90;;;;;;5058544;28;20183;-75
2021/03/10 00:22:29;;;;;;;57.47;36.90;;;7.60;99.90;;;;;;5072643;28;20190;-75
2021/03/10 00:24:54;;;;;;;59.10;37.65;;;7.60;99.90;;;;;;5071597;28;20179;-75
2021/03/10 00:27:26;;;;;;;61.40;38.00;;;7.60;99.90;;;;;;5035466;28;20602;-75
2021/03/10 00:29:56;;;;;;;60.45;37.92;;;7.50;99.90;;;;;;5036879;28;20220;-75
2021/03/10 00:32:24;;;;;;;63.28;38.88;;;7.50;99.90;;;;;;5061924;28;20206;-75
2021/03/10 00:34:50;;;;;;;66.80;38.80;;;7.50;99.90;;;;;;5073449;28;20519;-76
2021/03/10 00:37:17;;;;;;;60.97;38.72;;;7.40;99.90;;;;;;5075121;28;20163;-75
2021/03/10 00:39:47;;;;;;;64.10;38.50;;;7.30;99.90;;;;;;5054608;28;20181;-75
2021/03/10 00:42:13;;;;;;;57.50;37.22;;;7.30;99.90;;;;;;5070008;28;20178;-76
2021/03/10 00:44:39;;;;;;;67.57;39.22;;;7.30;99.90;;;;;;5070211;28;20179;-75
2021/03/10 00:47:06;;;;;;;66.72;39.80;;;7.30;99.90;;;;;;5060703;28;20247;-76
2021/03/10 00:49:31;;;;;;;69.03;40.05;;;7.20;99.90;;;;;;5052450;28;20217;-75
2021/03/10 00:51:57;;;;;;;75.00;41.42;;;7.20;99.90;;;;;;5066095;28;20705;-75
2021/03/10 00:54:23;;;;;;;75.70;43.08;;;7.20;99.90;;;;;;5056947;28;20175;-75
2021/03/10 00:56:51;;;;;;;68.65;41.25;;;7.20;99.90;;;;;;5054897;28;20193;-75
2021/03/10 00:59:17;;;;;;;73.57;42.17;;;7.10;99.90;;;;;;5074566;28;20163;-75
2021/03/10 01:01:43;;;;;;;78.80;43.38;;;7.20;99.90;;;;;;5064820;28;20191;-75
2021/03/10 01:04:08;;;;;;;75.70;44.35;;;7.20;99.90;;;;;;5056722;28;20602;-74
2021/03/10 01:06:34;;;;;;;78.97;44.90;;;7.20;99.90;;;;;;5072440;28;20592;-75
2021/03/10 01:09:00;;;;;;;79.78;44.47;;;7.30;99.90;;;;;;5056738;28;20264;-74
2021/03/10 01:11:25;;;;;;;78.93;43.67;;;7.30;99.90;;;;;;5064040;28;20186;-75
2021/03/10 01:13:51;;;;;;;83.38;45.53;;;7.30;99.90;;;;;;5056370;28;20268;-79
2021/03/10 01:16:17;;;;;;;90.32;47.53;;;7.20;99.90;;;;;;5043503;28;20172;-76
2021/03/10 01:18:43;;;;;;;81.32;45.13;;;7.10;99.90;;;;;;5053480;28;20233;-75
2021/03/10 01:21:09;;;;;;;80.85;46.97;;;7.10;99.90;;;;;;5053949;28;20615;-75
2021/03/10 01:23:35;;;;;;;79.78;44.75;;;7.10;99.90;;;;;;5054212;28;20179;-75
2021/03/10 01:26:01;;;;;;;79.40;45.25;;;7.10;99.90;;;;;;5054532;28;20172;-74
2021/03/10 01:28:26;;;;;;;81.47;44.08;;;7.00;99.90;;;;;;5054015;28;20199;-76
2021/03/10 01:30:53;;;;;;;78.57;44.15;;;7.00;99.90;;;;;;5036294;28;20175;-75
2021/03/10 01:33:19;;;;;;;75.22;43.58;;;7.00;99.90;;;;;;5035884;28;20199;-75
2021/03/10 01:35:45;;;;;;;75.65;44.60;;;6.90;99.90;;;;;;5054170;28;20175;-75
2021/03/10 01:38:11;;;;;;;78.28;44.30;;;6.90;99.90;;;;;;5054002;28;20703;-75
2021/03/10 01:40:37;;;;;;;76.28;42.30;;;6.90;99.90;;;;;;5053674;28;20217;-75
2021/03/10 01:43:03;;;;;;;90.05;46.13;;;6.90;99.90;;;;;;5036138;28;20521;-75
2021/03/10 01:45:29;;;;;;;77.33;45.07;;;6.90;99.90;;;;;;5053780;28;20253;-75
2021/03/10 01:47:57;;;;;;;79.57;47.10;;;6.90;99.90;;;;;;5035927;28;20594;-75
2021/03/10 01:50:25;;;;;;;82.35;45.00;;;6.90;99.90;;;;;;5036367;28;20172;-75
2021/03/10 01:52:53;;;;;;;77.63;44.70;;;6.80;99.90;;;;;;5053620;28;20199;-76
2021/03/10 01:55:19;;;;;;;78.30;44.97;;;6.80;99.90;;;;;;5053729;28;20203;-76
2021/03/10 01:57:46;;;;;;;85.60;43.30;;;6.80;99.90;;;;;;5052937;28;20191;-75
2021/03/10 02:00:12;;;;;;;72.68;41.30;;;6.70;99.90;;;;;;5049529;28;20182;-75
2021/03/10 02:02:38;;;;;;;82.63;46.70;;;6.70;99.90;;;;;;5053626;28;20214;-75
2021/03/10 02:05:06;;;;;;;86.87;44.50;;;6.60;99.90;;;;;;5053568;28;20632;-76
2021/03/10 02:07:37;;;;;;;90.67;47.73;;;6.70;99.90;;;;;;5026463;28;20246;-75
2021/03/10 02:10:21;;;;;;;84.57;44.17;;;6.70;99.90;;;;;;5035265;28;20199;-75
2021/03/10 02:13:01;;;;;;;87.57;45.97;;;6.80;99.90;;;;;;5037385;28;20203;-74
2021/03/10 02:15:35;;;;;;;83.20;44.90;;;6.70;99.90;;;;;;5053352;28;20255;-75
2021/03/10 02:18:09;;;;;;;76.47;42.17;;;6.70;99.90;;;;;;5053366;28;20221;-75
2021/03/10 02:20:41;;;;;;;75.47;43.77;;;6.60;99.90;;;;;;5053221;28;20174;-75
2021/03/10 02:23:14;;;;;;;71.30;41.03;;;6.60;99.90;;;;;;5053413;28;20179;-75
2021/03/10 02:26:17;;;;;;;75.87;39.50;;;6.50;99.90;;;;;;5053421;28;20229;-74
2021/03/10 02:28:46;;;;;;;72.43;40.03;;;6.50;99.90;;;;;;5052991;28;20174;-75
2021/03/10 02:31:12;;;;;;;71.93;41.43;;;6.50;99.90;;;;;;5053278;28;20171;-75
2021/03/10 02:33:39;;;;;;;79.18;40.90;;;6.40;99.90;;;;;;5053059;28;20210;-75
2021/03/10 02:36:12;;;;;;;73.90;38.90;;;6.50;99.90;;;;;;5052741;28;20182;-76
2021/03/10 02:38:51;;;;;;;71.30;38.90;;;6.50;99.90;;;;;;5052832;28;20650;-74
2021/03/10 02:41:18;;;;;;;72.97;39.73;;;6.40;99.90;;;;;;5034464;28;20225;-76
2021/03/10 02:43:46;;;;;;;74.37;40.20;;;6.40;99.90;;;;;;5018671;28;20278;-75
2021/03/10 02:46:14;;;;;;;74.30;39.30;;;6.40;99.90;;;;;;5052876;28;20585;-75
2021/03/10 02:48:39;;;;;;;75.87;41.23;;;6.30;99.90;;;;;;5034928;28;20198;-75
2021/03/10 02:51:06;;;;;;;80.73;41.73;;;6.30;99.90;;;;;;5053037;28;20198;-76
2021/03/10 02:53:33;;;;;;;70.07;40.37;;;6.30;99.90;;;;;;5052496;28;20211;-75
2021/03/10 02:56:00;;;;;;;75.03;40.13;;;6.30;99.90;;;;;;5052559;28;20175;-75
2021/03/10 02:58:26;;;;;;;70.83;39.53;;;6.30;99.90;;;;;;5052273;28;20167;-75
2021/03/10 03:00:52;;;;;;;78.10;41.55;;;6.30;99.90;;;;;;5052950;28;20519;-75
2021/03/10 03:03:17;;;;;;;75.43;41.23;;;6.20;99.90;;;;;;5035099;28;20186;-76
2021/03/10 03:05:43;;;;;;;72.40;41.90;;;6.30;99.90;;;;;;5052620;28;20202;-75
2021/03/10 03:08:12;;;;;;;76.43;40.93;;;6.30;99.90;;;;;;5034726;28;20167;-75
2021/03/10 03:10:41;;;;;;;77.30;43.13;;;6.20;99.90;;;;;;5056118;28;20241;-75
2021/03/10 03:13:10;;;;;;;72.00;40.47;;;6.20;99.90;;;;;;5056670;28;20564;-75
2021/03/10 03:15:36;;;;;;;70.73;41.60;;;6.20;99.90;;;;;;5038688;28;20210;-75
2021/03/10 03:18:04;;;;;;;70.23;41.67;;;6.10;99.90;;;;;;5038532;28;20175;-75
2021/03/10 03:20:30;;;;;;;77.03;39.60;;;6.10;99.90;;;;;;5056233;28;20175;-77
2021/03/10 03:22:58;;;;;;;79.80;41.17;;;6.10;99.90;;;;;;5056469;28;20183;-75
2021/03/10 03:25:27;;;;;;;67.27;39.13;;;6.10;99.90;;;;;;5038825;28;20263;-75
2021/03/10 03:27:59;;;;;;;71.60;40.70;;;6.00;99.90;;;;;;5056870;28;20172;-75
2021/03/10 03:30:27;;;;;;;63.20;37.77;;;6.00;99.90;;;;;;5056307;28;20496;-75
2021/03/10 03:32:54;;;;;;;64.70;39.27;;;6.10;99.90;;;;;;5056279;28;20333;-75
2021/03/10 03:35:21;;;;;;;74.60;39.47;;;6.10;99.90;;;;;;5038077;28;20543;-75
2021/03/10 03:37:50;;;;;;;74.77;39.27;;;6.20;99.90;;;;;;5038525;28;20178;-75
2021/03/10 03:40:17;;;;;;;67.47;38.70;;;6.20;99.90;;;;;;5055315;28;20678;-75
2021/03/10 03:42:43;;;;;;;66.10;37.07;;;6.20;99.90;;;;;;5022231;28;20635;-76
2021/03/10 03:45:10;;;;;;;70.70;37.67;;;6.20;99.90;;;;;;5056287;28;20163;-75
2021/03/10 03:47:38;;;;;;;70.63;37.57;;;6.10;99.90;;;;;;5037987;28;20188;-75
2021/03/10 03:50:04;;;;;;;65.93;37.07;;;6.20;99.90;;;;;;5055604;28;20613;-75
2021/03/10 03:52:30;;;;;;;67.97;34.33;;;6.10;99.90;;;;;;5055744;28;20670;-75
2021/03/10 03:54:56;;;;;;;60.67;34.03;;;6.10;99.90;;;;;;5037929;28;20186;-76
2021/03/10 03:57:21;;;;;;;68.17;35.17;;;6.10;99.90;;;;;;5021565;28;20257;-75
2021/03/10 03:59:47;;;;;;;62.17;33.33;;;6.10;99.90;;;;;;5055880;28;20172;-75
2021/03/10 04:02:13;;;;;;;56.23;32.17;;;6.10;99.90;;;;;;5037401;28;20269;-75
2021/03/10 04:04:38;;;;;;;59.00;34.33;;;6.10;99.90;;;;;;5055257;28;20175;-75
2021/03/10 04:07:04;;;;;;;72.07;35.00;;;6.10;99.90;;;;;;5037834;28;20713;-75
2021/03/10 04:09:29;;;;;;;59.47;32.07;;;6.10;99.90;;;;;;5037647;28;20637;-75
2021/03/10 04:11:55;;;;;;;53.20;32.00;;;6.20;99.90;;;;;;5055398;28;20619;-75
2021/03/10 04:14:21;;;;;;;54.20;30.20;;;6.20;99.90;;;;;;5055434;28;20528;-75
2021/03/10 04:16:47;;;;;;;53.60;31.77;;;6.20;99.90;;;;;;5055587;28;20200;-75
2021/03/10 04:19:12;;;;;;;58.67;30.43;;;6.30;99.90;;;;;;5037664;28;20472;-75
2021/03/10 04:21:38;;;;;;;61.60;31.67;;;6.20;99.90;;;;;;5054604;28;20260;-74
2021/03/10 04:24:05;;;;;;;57.97;31.43;;;6.30;99.90;;;;;;5037502;28;20239;-75
2021/03/10 04:26:31;;;;;;;59.40;30.27;;;6.20;99.90;;;;;;5055366;28;20635;-75
2021/03/10 04:28:57;;;;;;;55.90;30.67;;;6.20;99.90;;;;;;5055397;28;20256;-76
2021/03/10 04:31:22;;;;;;;53.40;30.40;;;6.20;99.90;;;;;;5055267;28;20230;-74
2021/03/10 04:33:48;;;;;;;50.63;29.63;;;6.20;99.90;;;;;;5037123;28;20203;-75
2021/03/10 04:36:14;;;;;;;57.23;31.30;;;6.10;99.90;;;;;;5055460;28;20163;-75
2021/03/10 04:38:40;;;;;;;59.37;29.83;;;6.10;99.90;;;;;;5037491;28;20186;-75
2021/03/10 04:41:06;;;;;;;54.13;29.40;;;6.20;99.90;;;;;;5054956;28;20611;-74
2021/03/10 04:43:31;;;;;;;58.63;30.07;;;6.20;99.90;;;;;;5055191;28;20225;-75
2021/03/10 04:45:57;;;;;;;51.27;29.53;;;6.10;99.90;;;;;;5054871;28;20742;-76
2021/03/10 04:48:22;;;;;;;59.57;31.90;;;6.10;99.90;;;;;;5036617;28;20270;-76
2021/03/10 04:50:49;;;;;;;56.90;31.30;;;6.10;99.90;;;;;;5055136;28;20637;-75
2021/03/10 04:53:14;;;;;;;65.73;32.77;;;6.20;99.90;;;;;;5054714;28;20701;-75
2021/03/10 04:55:41;;;;;;;60.80;31.43;;;6.20;99.90;;;;;;5037045;28;20175;-74
2021/03/10 04:58:07;;;;;;;55.87;32.37;;;6.20;99.90;;;;;;5054757;28;20171;-74
2021/03/10 05:00:33;;;;;;;60.27;33.20;;;6.10;99.90;;;;;;5036072;28;20179;-74
2021/03/10 05:02:59;;;;;;;58.07;31.30;;;6.10;99.90;;;;;;5054190;28;20182;-75
2021/03/10 05:05:24;;;;;;;66.30;33.30;;;6.20;99.90;;;;;;5054900;28;20168;-74
2021/03/10 05:07:50;;;;;;;57.60;32.20;;;6.20;99.90;;;;;;5054489;28;20210;-75
2021/03/10 05:10:16;;;;;;;62.00;30.77;;;6.20;99.90;;;;;;5036543;28;20175;-75
2021/03/10 05:12:42;;;;;;;68.83;31.73;;;6.20;99.90;;;;;;5036459;28;20199;-75
2021/03/10 05:15:08;;;;;;;71.93;33.53;;;6.20;99.90;;;;;;5054476;28;20172;-75
2021/03/10 05:17:35;;;;;;;66.17;34.10;;;6.20;99.90;;;;;;5036194;28;20602;-76
2021/03/10 05:20:01;;;;;;;60.90;32.33;;;6.20;99.90;;;;;;5036515;28;20540;-75
2021/03/10 05:22:27;;;;;;;60.50;31.70;;;6.30;99.90;;;;;;5054283;28;20578;-75
2021/03/10 05:24:53;;;;;;;72.60;32.03;;;6.30;99.90;;;;;;5054511;28;20167;-74
2021/03/10 05:27:21;;;;;;;61.00;31.53;;;6.30;99.90;;;;;;5054243;28;20172;-75
2021/03/10 05:29:46;;;;;;;64.03;31.07;;;6.40;99.90;;;;;;5036077;28;20175;-77
2021/03/10 05:32:12;;;;;;;58.00;32.97;;;6.40;99.90;;;;;;5034788;28;20693;-76
2021/03/10 05:34:38;;;;;;;59.83;31.33;;;6.50;99.90;;;;;;5036331;28;20638;-75
2021/03/10 05:37:04;;;;;;;60.00;30.37;;;6.50;99.90;;;;;;5053790;28;20175;-75
2021/03/10 05:39:30;;;;;;;63.93;31.90;;;6.50;99.90;;;;;;5053887;28;20320;-75
2021/03/10 05:41:57;;;;;;;57.40;30.10;;;6.50;99.90;;;;;;5041313;28;20199;-74
2021/03/10 05:44:24;;;;;;;53.73;29.73;;;6.50;99.90;;;;;;5053495;28;20213;-74
2021/03/10 05:46:50;;;;;;;58.37;30.63;;;6.50;99.90;;;;;;5035788;28;20181;-76
2021/03/10 05:49:15;;;;;;;60.67;29.27;;;6.50;99.90;;;;;;5053799;28;20171;-75
2021/03/10 05:51:41;;;;;;;55.80;30.20;;;6.60;99.90;;;;;;5035504;28;20225;-74
2021/03/10 05:54:07;;;;;;;63.70;29.90;;;6.60;99.90;;;;;;5036071;28;20186;-74
2021/03/10 05:56:33;;;;;;;51.73;28.50;;;6.50;99.90;;;;;;5035579;28;20174;-75
2021/03/10 05:59:01;;;;;;;55.40;29.03;;;6.60;99.90;;;;;;5035487;28;20531;-75
2021/03/10 06:01:27;;;;;;;49.93;27.30;;;6.60;99.90;;;;;;5053058;28;20187;-75
2021/03/10 06:04:04;;;;;;;54.67;28.33;;;6.50;99.90;;;;;;5035324;28;20171;-75
2021/03/10 06:06:35;;;;;;;59.23;29.47;;;6.50;99.90;;;;;;5053290;28;20179;-75
2021/03/10 06:09:20;;;;;;;61.17;30.00;;;6.70;99.90;;;;;;5053460;28;20167;-75
2021/03/10 06:11:56;;;;;;;60.20;30.57;;;6.60;99.90;;;;;;5036160;28;20183;-75
2021/03/10 06:14:22;;;;;;;54.38;29.92;;;6.60;99.90;;;;;;5052677;28;20649;-74
2021/03/10 06:16:58;;;;;;;55.90;29.63;;;6.70;99.90;;;;;;5053401;28;20216;-74
2021/03/10 06:19:24;;;;;;;61.90;30.57;;;6.70;99.90;;;;;;5053544;28;20685;-74
2021/03/10 06:21:50;;;;;;;63.63;29.47;;;6.70;99.90;;;;;;5035923;28;20176;-75
2021/03/10 06:24:15;;;;;;;57.65;31.02;;;6.70;99.90;;;;;;5052890;28;20266;-75
2021/03/10 06:26:52;;;;;;;65.95;29.27;;;6.80;99.90;;;;;;5035226;28;20310;-75
2021/03/10 06:29:17;;;;;;;60.00;30.80;;;6.80;99.90;;;;;;5053021;28;20172;-74
2021/03/10 06:31:43;;;;;;;65.00;29.03;;;6.80;99.90;;;;;;5053361;28;20180;-75
2021/03/10 06:34:11;;;;;;;67.53;30.52;;;6.90;99.90;;;;;;5052745;28;20627;-75
2021/03/10 06:36:48;;;;;;;62.78;30.17;;;7.00;99.90;;;;;;5052679;28;20639;-75
2021/03/10 06:39:31;;;;;;;62.95;30.15;;;7.00;99.90;;;;;;5053312;28;20241;-76
2021/03/10 06:41:58;;;;;;;59.80;28.80;;;7.00;99.90;;;;;;5052996;28;20163;-75
2021/03/10 06:44:25;;;;;;;58.77;29.17;;;7.00;99.90;;;;;;5052548;28;20175;-75
2021/03/10 06:47:01;;;;;;;61.23;28.13;;;7.00;99.90;;;;;;5052526;28;20175;-75
2021/03/10 06:49:32;;;;;;;57.70;28.47;;;7.10;99.90;;;;;;5035128;28;20167;-76
2021/03/10 06:52:00;;;;;;;57.63;27.67;;;7.10;99.90;;;;;;5035250;28;20163;-75
2021/03/10 06:54:29;;;;;;;55.57;29.67;;;7.20;99.90;;;;;;5052518;28;20179;-77
2021/03/10 06:57:10;;;;;;;60.30;28.47;;;7.30;99.90;;;;;;5053015;28;20171;-75
2021/03/10 06:59:42;;;;;;;54.90;27.43;;;7.40;99.90;;;;;;5034903;28;20168;-75
2021/03/10 07:02:26;;;;;;;58.10;28.07;;;7.40;99.90;;;;;;5034817;28;20202;-75
2021/03/10 07:05:03;;;;;;;71.63;30.07;;;7.40;99.90;;;;;;5034648;28;20168;-75
2021/03/10 07:07:35;;;;;;;62.43;28.17;;;7.40;99.90;;;;;;5052480;28;20175;-75
2021/03/10 07:10:01;;;;;;;66.77;29.33;;;7.40;99.90;;;;;;5052601;28;20297;-75
2021/03/10 07:12:29;;;;;;;66.43;29.00;;;7.40;99.90;;;;;;5052908;28;20286;-75
2021/03/10 07:14:54;;;;;;;66.40;29.77;;;7.50;99.90;;;;;;5052518;28;20175;-75
2021/03/10 07:17:23;;;;;;;52.55;27.70;;;7.50;99.90;;;;;;5035445;28;20262;-75
2021/03/10 07:19:49;;;;;;;61.67;27.83;;;7.50;99.90;;;;;;5052804;28;20195;-75
2021/03/10 07:22:24;;;;;;;58.63;27.40;;;7.60;99.90;;;;;;5035012;28;20195;-76
2021/03/10 07:25:13;;;;;;;57.33;25.08;;;7.60;99.90;;;;;;5052279;28;20509;-75
2021/03/10 07:27:38;;;;;;;58.13;27.33;;;7.70;99.90;;;;;;5052719;28;20168;-75
2021/03/10 07:30:05;;;;;;;63.85;28.65;;;7.70;99.90;;;;;;5034732;28;20625;-76
2021/03/10 07:32:31;;;;;;;49.33;26.73;;;7.70;99.90;;;;;;5052482;28;20215;-75
2021/03/10 07:35:04;;;;;;;53.47;26.65;;;7.70;99.90;;;;;;5034669;28;20267;-76
2021/03/10 07:37:30;;;;;;;57.47;26.45;;;7.60;99.90;;;;;;5052137;28;20182;-75
2021/03/10 07:40:13;;;;;;;54.38;26.48;;;7.60;99.90;;;;;;5034909;28;20527;-75
2021/03/10 07:42:53;;;;;;;63.33;25.30;;;7.70;99.90;;;;;;5043262;28;20176;-75
2021/03/10 07:45:21;;;;;;;50.67;24.20;;;7.60;99.90;;;;;;5015783;28;20180;-76
2021/03/10 07:47:57;;;;;;;53.87;25.43;;;7.70;99.90;;;;;;5046427;28;20205;-75
2021/03/10 07:50:24;;;;;;;62.78;25.27;;;7.70;99.90;;;;;;5034029;28;20171;-75
2021/03/10 07:52:54;;;;;;;56.10;25.67;;;7.70;99.90;;;;;;5017977;28;20211;-77
2021/03/10 07:55:21;;;;;;;45.10;23.60;;;7.60;99.90;;;;;;5052234;28;20179;-76
2021/03/10 07:57:55;;;;;;;44.00;22.07;;;7.60;99.90;;;;;;5055061;28;20174;-76
2021/03/10 08:00:32;;;;;;;37.77;20.70;;;7.50;99.90;;;;;;5055561;28;20300;-76
2021/03/10 08:02:58;;;;;;;35.47;21.03;;;7.60;99.90;;;;;;5037443;28;20191;-76
2021/03/10 08:05:26;;;;;;;40.88;21.45;;;7.70;99.90;;;;;;5054820;28;20618;-76
2021/03/10 08:08:14;;;;;;;42.00;19.95;;;7.80;99.90;;;;;;5037184;28;20172;-75
2021/03/10 08:10:41;;;;;;;31.90;19.60;;;7.90;99.90;;;;;;5055374;28;20259;-75
2021/03/10 08:13:20;;;;;;;34.53;19.83;;;7.90;99.90;;;;;;5054984;28;20207;-76
2021/03/10 08:15:46;;;;;;;37.03;20.30;;;8.10;99.90;;;;;;5055448;28;20261;-76
2021/03/10 08:18:13;;;;;;;31.40;18.43;;;8.10;99.90;;;;;;5035675;28;20605;-75
2021/03/10 08:20:39;;;;;;;30.95;19.13;;;8.20;99.90;;;;;;5035612;28;20509;-76
2021/03/10 08:23:06;;;;;;;33.50;17.95;;;8.30;99.90;;;;;;5037109;28;20201;-76
2021/03/10 08:25:33;;;;;;;38.40;17.90;;;8.40;99.90;;;;;;5037787;28;20171;-75
2021/03/10 08:28:13;;;;;;;33.92;18.70;;;8.50;99.90;;;;;;5055617;28;20163;-76
2021/03/10 08:30:39;;;;;;;32.95;17.05;;;8.60;99.90;;;;;;5037378;28;20167;-76
2021/03/10 08:33:06;;;;;;;27.67;17.17;;;8.70;99.90;;;;;;5036233;28;20230;-76
2021/03/10 08:35:32;;;;;;;28.67;16.88;;;8.90;99.90;;;;;;5036980;28;20218;-76
2021/03/10 08:38:01;;;;;;;21.85;15.05;;;9.00;99.90;;;;;;5037027;28;20168;-76
2021/03/10 08:40:28;;;;;;;21.23;14.77;;;9.20;99.90;;;;;;5055050;28;20591;-75
2021/03/10 08:43:03;;;;;;;18.52;14.30;;;9.40;99.90;;;;;;5054933;28;20171;-75
2021/03/10 08:45:36;;;;;;;23.52;14.15;;;9.50;99.90;;;;;;5054920;28;20195;-75
2021/03/10 08:48:07;;;;;;;16.55;13.07;;;9.60;99.90;;;;;;5054930;28;20246;-75
2021/03/10 08:50:36;;;;;;;21.00;11.90;;;9.40;99.90;;;;;;5054435;28;20171;-77
2021/03/10 08:53:04;;;;;;;22.60;12.75;;;9.40;99.90;;;;;;5035847;28;20286;-75
2021/03/10 08:55:29;;;;;;;14.93;11.98;;;9.40;99.90;;;;;;5054582;28;20180;-75
2021/03/10 08:57:58;;;;;;;22.17;13.57;;;9.50;99.90;;;;;;5054863;28;20178;-75
2021/03/10 09:00:26;;;;;;;15.70;13.25;;;9.50;99.90;;;;;;5054601;28;20164;-77
2021/03/10 09:02:53;;;;;;;18.10;13.35;;;9.60;99.90;;;;;;5054384;28;20183;-76
2021/03/10 09:05:27;;;;;;;19.67;12.80;;;9.90;99.90;;;;;;5054397;28;20174;-75
2021/03/10 09:07:53;;;;;;;16.88;11.90;;;10.20;99.90;;;;;;5054708;28;20162;-75
2021/03/10 09:10:21;;;;;;;14.98;12.10;;;10.70;99.90;;;;;;5054707;28;20213;-75
2021/03/10 09:12:49;;;;;;;12.13;10.90;;;11.20;99.90;;;;;;5036361;28;20548;-75
2021/03/10 09:15:20;;;;;;;15.07;11.18;;;11.60;99.90;;;;;;5054221;28;20172;-75
2021/03/10 09:17:46;;;;;;;14.88;10.50;;;12.00;99.90;;;;;;5054575;28;20648;-75
2021/03/10 09:20:27;;;;;;;14.32;10.60;;;11.90;99.90;;;;;;5054457;28;20620;-76
2021/03/10 09:22:54;;;;;;;13.85;10.40;;;11.60;99.90;;;;;;5036252;28;20368;-75
2021/03/10 09:25:30;;;;;;;14.27;10.05;;;11.60;99.90;;;;;;5035909;28;20221;-76
2021/03/10 09:28:12;;;;;;;12.57;10.85;;;11.60;99.90;;;;;;5016572;28;20205;-75
2021/03/10 09:30:49;;;;;;;22.05;11.40;;;11.60;99.90;;;;;;5016185;28;20263;-75
2021/03/10 09:33:26;;;;;;;17.48;11.07;;;11.40;99.90;;;;;;5053938;28;20205;-75
2021/03/10 09:36:02;;;;;;;15.93;10.75;;;11.40;99.90;;;;;;5036283;28;20291;-75
2021/03/10 09:38:29;;;;;;;16.80;11.07;;;11.40;99.90;;;;;;5054216;28;20163;-75
2021/03/10 09:40:58;;;;;;;19.77;11.32;;;11.60;99.90;;;;;;5053491;28;20175;-75
2021/03/10 09:43:26;;;;;;;25.20;12.65;;;12.20;99.90;;;;;;5034547;28;20270;-76
2021/03/10 09:46:01;;;;;;;14.20;11.00;;;12.70;99.90;;;;;;5053668;28;20167;-74
2021/03/10 09:48:40;;;;;;;17.70;10.32;;;13.40;99.90;;;;;;5034179;28;20603;-80
2021/03/10 09:51:14;;;;;;;13.60;9.85;;;14.60;99.90;;;;;;5051675;28;20182;-75
2021/03/10 09:53:42;;;;;;;14.82;9.98;;;15.10;99.90;;;;;;5035461;28;20586;-76
2021/03/10 09:56:11;;;;;;;16.67;10.00;;;15.70;99.90;;;;;;5052789;28;20198;-76
2021/03/10 09:58:56;;;;;;;15.85;10.77;;;15.50;99.90;;;;;;5035536;28;20642;-76
2021/03/10 10:01:26;;;;;;;23.50;11.40;;;15.00;99.90;;;;;;5052719;28;20712;-79
2021/03/10 10:03:54;;;;;;;15.75;11.45;;;14.70;99.90;;;;;;5053243;28;20221;-76
2021/03/10 10:06:21;;;;;;;16.45;10.77;;;14.60;99.90;;;;;;5053177;28;20180;-74
2021/03/10 10:08:48;;;;;;;15.93;11.20;;;14.00;99.90;;;;;;5052580;28;20221;-75
2021/03/10 10:11:15;;;;;;;18.25;12.07;;;13.30;99.90;;;;;;5052581;28;20258;-75
2021/03/10 10:13:43;;;;;;;25.50;11.55;;;12.90;99.90;;;;;;5053039;28;20223;-74
2021/03/10 10:16:10;;;;;;;24.45;12.52;;;12.30;99.90;;;;;;5053133;28;20175;-75
2021/03/10 10:18:36;;;;;;;22.45;12.20;;;12.10;99.90;;;;;;5033677;28;20289;-76
2021/03/10 10:21:02;;;;;;;21.30;12.25;;;12.10;99.90;;;;;;5053347;28;20163;-74
2021/03/10 10:23:28;;;;;;;17.45;11.98;;;12.00;99.90;;;;;;5053051;28;20182;-75
2021/03/10 10:25:54;;;;;;;15.73;12.70;;;11.90;99.90;;;;;;5052416;28;20171;-76
2021/03/10 10:28:21;;;;;;;17.02;12.90;;;11.90;99.90;;;;;;5035027;28;20203;-75
2021/03/10 10:30:46;;;;;;;28.50;13.35;;;11.70;99.90;;;;;;5034257;28;20531;-75
2021/03/10 10:33:17;;;;;;;24.70;14.25;;;11.80;99.90;;;;;;5053410;28;20229;-74
2021/03/10 10:35:43;;;;;;;22.33;12.98;;;12.10;99.90;;;;;;5015749;28;20362;-74
2021/03/10 10:38:08;;;;;;;18.15;12.98;;;12.50;99.90;;;;;;5035731;28;20254;-75
2021/03/10 10:40:35;;;;;;;17.38;12.73;;;12.60;99.90;;;;;;5008625;28;20184;-75
2021/03/10 10:43:00;;;;;;;22.55;12.23;;;12.50;99.90;;;;;;5039771;28;20219;-75
2021/03/10 10:45:26;;;;;;;21.52;13.13;;;12.80;99.90;;;;;;5034595;28;20558;-75
2021/03/10 10:47:51;;;;;;;17.17;13.23;;;13.40;99.90;;;;;;5052769;28;20207;-75
2021/03/10 10:50:17;;;;;;;17.75;13.00;;;14.10;99.90;;;;;;5033991;28;20520;-76
2021/03/10 10:52:44;;;;;;;21.38;13.93;;;14.30;99.90;;;;;;5033238;28;20333;-75
2021/03/10 10:55:12;;;;;;;21.15;13.63;;;14.40;99.90;;;;;;5051961;28;20580;-75
2021/03/10 10:57:38;;;;;;;20.83;14.15;;;14.90;99.90;;;;;;5034670;28;20178;-75
2021/03/10 11:00:09;;;;;;;29.80;15.60;;;15.10;99.90;;;;;;5051999;28;20167;-75
2021/03/10 11:02:35;;;;;;;17.55;13.77;;;15.10;99.90;;;;;;5051822;28;20199;-75
2021/03/10 11:05:00;;;;;;;19.08;13.50;;;15.10;99.90;;;;;;5052091;28;20183;-76
2021/03/10 11:07:26;;;;;;;24.38;15.13;;;15.10;99.90;;;;;;5032465;28;20550;-76
2021/03/10 11:09:52;;;;;;;20.70;13.95;;;15.00;99.90;;;;;;5032428;28;20595;-75
2021/03/10 11:12:17;;;;;;;20.27;14.55;;;15.00;99.90;;;;;;5019547;28;20211;-75
2021/03/10 11:14:43;;;;;;;18.08;14.88;;;14.80;99.90;;;;;;5034427;28;20246;-75
2021/03/10 11:17:09;;;;;;;20.08;14.35;;;14.50;99.90;;;;;;5018145;28;20176;-75
2021/03/10 11:19:36;;;;;;;17.80;13.10;;;14.60;99.90;;;;;;5051659;28;20207;-76
2021/03/10 11:22:04;;;;;;;19.52;14.13;;;14.40;99.90;;;;;;5051435;28;20167;-75
2021/03/10 11:24:30;;;;;;;17.00;14.20;;;14.30;99.90;;;;;;5020577;28;20180;-75
2021/03/10 11:26:55;;;;;;;19.90;14.48;;;14.40;99.90;;;;;;5017688;28;20281;-75
2021/03/10 11:29:21;;;;;;;20.88;15.63;;;14.50;99.90;;;;;;5052075;28;20175;-76
2021/03/10 11:31:47;;;;;;;19.75;14.60;;;14.80;99.90;;;;;;5055029;28;20257;-77
2021/03/10 11:34:13;;;;;;;19.08;15.60;;;15.00;99.90;;;;;;5055972;28;20203;-75
2021/03/10 11:36:39;;;;;;;20.88;15.52;;;15.60;99.90;;;;;;5038159;28;20214;-75
2021/03/10 11:39:05;;;;;;;24.02;15.55;;;16.30;99.90;;;;;;5056032;28;20245;-75
2021/03/10 11:41:33;;;;;;;25.58;15.93;;;16.50;99.90;;;;;;5037685;28;20203;-75
2021/03/10 11:43:58;;;;;;;25.48;16.80;;;16.90;99.90;;;;;;5055559;28;20199;-75
2021/03/10 11:46:24;;;;;;;24.45;17.27;;;16.60;99.90;;;;;;5037711;28;20245;-75
2021/03/10 11:48:50;;;;;;;31.30;17.65;;;16.30;99.90;;;;;;5055697;28;20206;-75
2021/03/10 11:51:15;;;;;;;30.20;18.73;;;16.20;99.90;;;;;;5055272;28;20221;-75
2021/03/10 11:53:41;;;;;;;21.67;16.02;;;16.20;99.90;;;;;;5055594;28;20214;-74
2021/03/10 11:56:08;;;;;;;22.73;18.20;;;16.60;99.90;;;;;;5054476;28;20638;-75
2021/03/10 11:58:33;;;;;;;32.08;18.02;;;16.40;99.90;;;;;;5045658;28;20176;-74
2021/03/10 12:00:59;;;;;;;25.38;18.58;;;16.60;99.90;;;;;;5055769;28;20191;-75
2021/03/10 12:03:25;;;;;;;26.95;18.17;;;16.10;99.90;;;;;;5037383;28;20708;-75
2021/03/10 12:05:50;;;;;;;30.52;19.42;;;15.40;99.90;;;;;;5037151;28;20521;-75
2021/03/10 12:08:16;;;;;;;38.58;20.90;;;15.50;99.90;;;;;;5037209;28;20274;-75
2021/03/10 12:10:42;;;;;;;23.60;19.10;;;15.50;99.90;;;;;;5031660;28;20209;-76
2021/03/10 12:13:09;;;;;;;36.13;20.70;;;15.70;99.90;;;;;;5036910;28;20207;-77
2021/03/10 12:15:35;;;;;;;30.73;19.50;;;15.60;99.90;;;;;;5017571;28;20176;-74
2021/03/10 12:18:01;;;;;;;25.92;19.38;;;15.80;99.90;;;;;;5048258;28;20175;-75
2021/03/10 12:20:27;;;;;;;26.88;19.50;;;15.90;99.90;;;;;;5037304;28;20175;-75
2021/03/10 12:22:52;;;;;;;27.48;18.98;;;16.00;99.90;;;;;;5055620;28;20175;-75
2021/03/10 12:25:18;;;;;;;25.73;20.23;;;15.70;99.90;;;;;;5053281;28;20179;-75
2021/03/10 12:27:44;;;;;;;31.50;20.58;;;15.50;99.90;;;;;;5035466;28;20172;-75
2021/03/10 12:30:10;;;;;;;30.83;19.80;;;15.20;99.90;;;;;;5031516;28;20174;-75
2021/03/10 12:32:36;;;;;;;27.13;20.90;;;15.30;99.90;;;;;;5054237;28;20214;-75
2021/03/10 12:35:03;;;;;;;30.45;20.13;;;15.70;99.90;;;;;;5037051;28;20168;-76
2021/03/10 12:37:29;;;;;;;30.10;20.05;;;16.20;99.90;;;;;;5055262;28;20168;-75